sensor_id;sensor_type;location;lat;lon;timestamp;P1;durP1;ratioP1;P2;durP2;ratioP2
46086;SDS011;31824;49.648;8.640;2023-04-29T00:02:27;0.00;;;0.00;;
46086;SDS011;31824;49.648;8.640;2023-04-29T00:05:32;0.00;;;0.00;;
46086;SDS011;31824;49.648;8.640;2023-04-29T00:08:34;0.00;;;0.00;;
46086;SDS011;31824;49.648;8.640;2023-04-29T00:11:36;0.00;;;0.00;;
46086;SDS011;31824;49.648;8.640;2023-04-29T00:14:40;0.00;;;0.00;;
46086;SDS011;31824;49.648;8.640;2023-04-29T00:20:45;0.00;;;0.00;;
46086;SDS011;31824;49.648;8.640;2023-04-29T00:23:48;0.00;;;0.00;;
46086;SDS011;31824;49.648;8.640;2023-04-29T00:26:49;0.00;;;0.00;;
46086;SDS011;31824;49.648;8.640;2023-04-29T00:29:53;0.08;;;0.03;;
46086;SDS011;31824;49.648;8.640;2023-04-29T00:32:55;0.00;;;0.00;;
46086;SDS011;31824;49.648;8.640;2023-04-29T00:35:58;0.00;;;0.00;;
46086;SDS011;31824;49.648;8.640;2023-04-29T00:39:00;0.00;;;0.00;;
46086;SDS011;31824;49.648;8.640;2023-04-29T00:42:02;0.00;;;0.00;;
46086;SDS011;31824;49.648;8.640;2023-04-29T00:45:07;0.20;;;0.20;;
46086;SDS011;31824;49.648;8.640;2023-04-29T00:48:09;0.00;;;0.00;;
46086;SDS011;31824;49.648;8.640;2023-04-29T00:51:11;0.00;;;0.00;;
46086;SDS011;31824;49.648;8.640;2023-04-29T00:54:14;0.00;;;0.00;;
46086;SDS011;31824;49.648;8.640;2023-04-29T00:57:17;0.00;;;0.00;;
46086;SDS011;31824;49.648;8.640;2023-04-29T01:00:21;0.08;;;0.00;;
46086;SDS011;31824;49.648;8.640;2023-04-29T01:03:23;0.00;;;0.00;;
46086;SDS011;31824;49.648;8.640;2023-04-29T01:06:27;0.00;;;0.00;;
46086;SDS011;31824;49.648;8.640;2023-04-29T01:09:42;0.00;;;0.00;;
46086;SDS011;31824;49.648;8.640;2023-04-29T01:12:59;0.00;;;0.00;;
46086;SDS011;31824;49.648;8.640;2023-04-29T01:16:10;0.00;;;0.00;;
46086;SDS011;31824;49.648;8.640;2023-04-29T01:19:21;0.00;;;0.00;;
46086;SDS011;31824;49.648;8.640;2023-04-29T01:22:39;0.00;;;0.00;;
46086;SDS011;31824;49.648;8.640;2023-04-29T01:25:42;0.00;;;0.00;;
46086;SDS011;31824;49.648;8.640;2023-04-29T01:28:55;0.00;;;0.00;;
46086;SDS011;31824;49.648;8.640;2023-04-29T01:32:03;0.00;;;0.00;;
46086;SDS011;31824;49.648;8.640;2023-04-29T01:35:10;0.00;;;0.00;;
46086;SDS011;31824;49.648;8.640;2023-04-29T01:38:23;0.00;;;0.00;;
46086;SDS011;31824;49.648;8.640;2023-04-29T01:41:34;0.00;;;0.00;;
46086;SDS011;31824;49.648;8.640;2023-04-29T01:44:52;0.00;;;0.00;;
46086;SDS011;31824;49.648;8.640;2023-04-29T01:47:58;0.00;;;0.00;;
46086;SDS011;31824;49.648;8.640;2023-04-29T01:51:03;0.00;;;0.00;;
46086;SDS011;31824;49.648;8.640;2023-04-29T01:54:06;0.00;;;0.00;;
46086;SDS011;31824;49.648;8.640;2023-04-29T01:57:09;0.00;;;0.00;;
46086;SDS011;31824;49.648;8.640;2023-04-29T02:00:26;0.00;;;0.00;;
46086;SDS011;31824;49.648;8.640;2023-04-29T02:03:28;0.00;;;0.00;;
46086;SDS011;31824;49.648;8.640;2023-04-29T02:06:31;0.00;;;0.00;;
46086;SDS011;31824;49.648;8.640;2023-04-29T02:09:36;0.00;;;0.00;;
46086;SDS011;31824;49.648;8.640;2023-04-29T02:12:45;0.00;;;0.00;;
46086;SDS011;31824;49.648;8.640;2023-04-29T02:15:47;0.00;;;0.00;;
46086;SDS011;31824;49.648;8.640;2023-04-29T02:18:49;0.00;;;0.00;;
46086;SDS011;31824;49.648;8.640;2023-04-29T02:21:51;0.00;;;0.00;;
46086;SDS011;31824;49.648;8.640;2023-04-29T02:24:53;0.00;;;0.00;;
46086;SDS011;31824;49.648;8.640;2023-04-29T02:27:56;0.00;;;0.00;;
46086;SDS011;31824;49.648;8.640;2023-04-29T02:30:58;0.00;;;0.00;;
46086;SDS011;31824;49.648;8.640;2023-04-29T02:34:00;0.00;;;0.00;;
46086;SDS011;31824;49.648;8.640;2023-04-29T02:37:02;0.00;;;0.00;;
46086;SDS011;31824;49.648;8.640;2023-04-29T02:40:05;0.00;;;0.00;;
46086;SDS011;31824;49.648;8.640;2023-04-29T02:43:09;0.00;;;0.00;;
46086;SDS011;31824;49.648;8.640;2023-04-29T02:46:12;0.00;;;0.00;;
46086;SDS011;31824;49.648;8.640;2023-04-29T02:49:14;0.00;;;0.00;;
46086;SDS011;31824;49.648;8.640;2023-04-29T02:52:16;0.00;;;0.00;;
46086;SDS011;31824;49.648;8.640;2023-04-29T02:55:19;0.00;;;0.00;;
46086;SDS011;31824;49.648;8.640;2023-04-29T02:58:23;0.00;;;0.00;;
46086;SDS011;31824;49.648;8.640;2023-04-29T03:01:25;0.00;;;0.00;;
46086;SDS011;31824;49.648;8.640;2023-04-29T03:04:27;0.00;;;0.00;;
46086;SDS011;31824;49.648;8.640;2023-04-29T03:07:29;0.00;;;0.00;;
46086;SDS011;31824;49.648;8.640;2023-04-29T03:10:31;0.00;;;0.00;;
46086;SDS011;31824;49.648;8.640;2023-04-29T03:13:34;0.00;;;0.00;;
46086;SDS011;31824;49.648;8.640;2023-04-29T03:16:36;0.00;;;0.00;;
46086;SDS011;31824;49.648;8.640;2023-04-29T03:19:39;0.00;;;0.00;;
46086;SDS011;31824;49.648;8.640;2023-04-29T03:22:41;0.00;;;0.00;;
46086;SDS011;31824;49.648;8.640;2023-04-29T03:25:44;0.00;;;0.00;;
46086;SDS011;31824;49.648;8.640;2023-04-29T03:28:47;0.00;;;0.00;;
46086;SDS011;31824;49.648;8.640;2023-04-29T03:31:48;0.00;;;0.00;;
46086;SDS011;31824;49.648;8.640;2023-04-29T03:34:51;0.00;;;0.00;;
46086;SDS011;31824;49.648;8.640;2023-04-29T03:38:19;2.63;;;0.38;;
46086;SDS011;31824;49.648;8.640;2023-04-29T03:41:22;0.00;;;0.00;;
46086;SDS011;31824;49.648;8.640;2023-04-29T03:44:25;0.00;;;0.00;;
46086;SDS011;31824;49.648;8.640;2023-04-29T03:50:31;0.00;;;0.00;;
46086;SDS011;31824;49.648;8.640;2023-04-29T03:53:33;0.00;;;0.00;;
46086;SDS011;31824;49.648;8.640;2023-04-29T03:56:37;0.00;;;0.00;;
46086;SDS011;31824;49.648;8.640;2023-04-29T03:59:41;0.00;;;0.00;;
46086;SDS011;31824;49.648;8.640;2023-04-29T04:02:43;0.00;;;0.00;;
46086;SDS011;31824;49.648;8.640;2023-04-29T04:05:46;0.00;;;0.00;;
46086;SDS011;31824;49.648;8.640;2023-04-29T04:08:50;0.00;;;0.00;;
46086;SDS011;31824;49.648;8.640;2023-04-29T04:11:56;0.00;;;0.00;;
46086;SDS011;31824;49.648;8.640;2023-04-29T04:14:59;0.00;;;0.00;;
46086;SDS011;31824;49.648;8.640;2023-04-29T04:18:01;0.00;;;0.00;;
46086;SDS011;31824;49.648;8.640;2023-04-29T04:21:04;0.00;;;0.00;;
46086;SDS011;31824;49.648;8.640;2023-04-29T04:24:06;0.00;;;0.00;;
46086;SDS011;31824;49.648;8.640;2023-04-29T04:27:08;0.00;;;0.00;;
46086;SDS011;31824;49.648;8.640;2023-04-29T04:30:18;0.00;;;0.00;;
46086;SDS011;31824;49.648;8.640;2023-04-29T04:33:20;0.00;;;0.00;;
46086;SDS011;31824;49.648;8.640;2023-04-29T04:36:23;0.00;;;0.00;;
46086;SDS011;31824;49.648;8.640;2023-04-29T04:39:25;0.00;;;0.00;;
46086;SDS011;31824;49.648;8.640;2023-04-29T04:42:30;0.00;;;0.00;;
46086;SDS011;31824;49.648;8.640;2023-04-29T04:45:34;0.00;;;0.00;;
46086;SDS011;31824;49.648;8.640;2023-04-29T04:48:37;0.00;;;0.00;;
46086;SDS011;31824;49.648;8.640;2023-04-29T04:51:39;0.00;;;0.00;;
46086;SDS011;31824;49.648;8.640;2023-04-29T04:54:44;0.00;;;0.00;;
46086;SDS011;31824;49.648;8.640;2023-04-29T04:57:51;0.00;;;0.00;;
46086;SDS011;31824;49.648;8.640;2023-04-29T05:00:54;0.00;;;0.00;;
46086;SDS011;31824;49.648;8.640;2023-04-29T05:03:56;0.00;;;0.00;;
46086;SDS011;31824;49.648;8.640;2023-04-29T05:06:58;0.00;;;0.00;;
46086;SDS011;31824;49.648;8.640;2023-04-29T05:10:06;0.00;;;0.00;;
46086;SDS011;31824;49.648;8.640;2023-04-29T05:13:16;0.00;;;0.00;;
46086;SDS011;31824;49.648;8.640;2023-04-29T05:16:19;0.00;;;0.00;;
46086;SDS011;31824;49.648;8.640;2023-04-29T05:19:22;0.00;;;0.00;;
46086;SDS011;31824;49.648;8.640;2023-04-29T05:22:24;0.00;;;0.00;;
46086;SDS011;31824;49.648;8.640;2023-04-29T05:25:25;0.00;;;0.00;;
46086;SDS011;31824;49.648;8.640;2023-04-29T05:28:29;0.00;;;0.00;;
46086;SDS011;31824;49.648;8.640;2023-04-29T05:31:33;0.00;;;0.00;;
46086;SDS011;31824;49.648;8.640;2023-04-29T05:34:37;0.00;;;0.00;;
46086;SDS011;31824;49.648;8.640;2023-04-29T05:37:39;0.00;;;0.00;;
46086;SDS011;31824;49.648;8.640;2023-04-29T05:41:01;0.00;;;0.00;;
46086;SDS011;31824;49.648;8.640;2023-04-29T05:44:22;0.00;;;0.00;;
46086;SDS011;31824;49.648;8.640;2023-04-29T05:47:26;0.00;;;0.00;;
46086;SDS011;31824;49.648;8.640;2023-04-29T05:50:28;0.00;;;0.00;;
46086;SDS011;31824;49.648;8.640;2023-04-29T05:53:29;0.00;;;0.00;;
46086;SDS011;31824;49.648;8.640;2023-04-29T05:56:32;0.00;;;0.00;;
46086;SDS011;31824;49.648;8.640;2023-04-29T05:59:34;0.00;;;0.00;;
46086;SDS011;31824;49.648;8.640;2023-04-29T06:02:39;0.00;;;0.00;;
46086;SDS011;31824;49.648;8.640;2023-04-29T06:05:55;0.00;;;0.00;;
46086;SDS011;31824;49.648;8.640;2023-04-29T06:09:12;0.00;;;0.00;;
46086;SDS011;31824;49.648;8.640;2023-04-29T06:12:28;0.00;;;0.00;;
46086;SDS011;31824;49.648;8.640;2023-04-29T06:15:32;0.00;;;0.00;;
46086;SDS011;31824;49.648;8.640;2023-04-29T06:18:35;0.00;;;0.00;;
46086;SDS011;31824;49.648;8.640;2023-04-29T06:21:37;0.00;;;0.00;;
46086;SDS011;31824;49.648;8.640;2023-04-29T06:24:39;0.00;;;0.00;;
46086;SDS011;31824;49.648;8.640;2023-04-29T06:27:43;0.00;;;0.00;;
46086;SDS011;31824;49.648;8.640;2023-04-29T06:30:45;0.00;;;0.00;;
46086;SDS011;31824;49.648;8.640;2023-04-29T06:33:49;0.00;;;0.00;;
46086;SDS011;31824;49.648;8.640;2023-04-29T06:36:51;0.00;;;0.00;;
46086;SDS011;31824;49.648;8.640;2023-04-29T06:40:22;0.00;;;0.00;;
46086;SDS011;31824;49.648;8.640;2023-04-29T06:43:43;0.00;;;0.00;;
46086;SDS011;31824;49.648;8.640;2023-04-29T06:47:07;0.00;;;0.00;;
46086;SDS011;31824;49.648;8.640;2023-04-29T06:50:19;0.00;;;0.00;;
46086;SDS011;31824;49.648;8.640;2023-04-29T06:53:21;0.00;;;0.00;;
46086;SDS011;31824;49.648;8.640;2023-04-29T06:56:23;0.00;;;0.00;;
46086;SDS011;31824;49.648;8.640;2023-04-29T06:59:26;0.00;;;0.00;;
46086;SDS011;31824;49.648;8.640;2023-04-29T07:02:28;0.00;;;0.00;;
46086;SDS011;31824;49.648;8.640;2023-04-29T07:05:31;0.00;;;0.00;;
46086;SDS011;31824;49.648;8.640;2023-04-29T07:08:33;0.00;;;0.00;;
46086;SDS011;31824;49.648;8.640;2023-04-29T07:11:35;0.00;;;0.00;;
46086;SDS011;31824;49.648;8.640;2023-04-29T07:14:37;0.00;;;0.00;;
46086;SDS011;31824;49.648;8.640;2023-04-29T07:17:38;0.00;;;0.00;;
46086;SDS011;31824;49.648;8.640;2023-04-29T07:20:42;0.00;;;0.00;;
46086;SDS011;31824;49.648;8.640;2023-04-29T07:23:44;0.00;;;0.00;;
46086;SDS011;31824;49.648;8.640;2023-04-29T07:26:46;0.00;;;0.00;;
46086;SDS011;31824;49.648;8.640;2023-04-29T07:29:50;0.00;;;0.00;;
46086;SDS011;31824;49.648;8.640;2023-04-29T07:32:52;0.00;;;0.00;;
46086;SDS011;31824;49.648;8.640;2023-04-29T07:35:55;1.45;;;0.25;;
46086;SDS011;31824;49.648;8.640;2023-04-29T07:38:57;0.00;;;0.00;;
46086;SDS011;31824;49.648;8.640;2023-04-29T07:42:00;0.00;;;0.00;;
46086;SDS011;31824;49.648;8.640;2023-04-29T07:45:04;0.00;;;0.00;;
46086;SDS011;31824;49.648;8.640;2023-04-29T07:48:07;0.00;;;0.00;;
46086;SDS011;31824;49.648;8.640;2023-04-29T07:51:12;0.00;;;0.00;;
46086;SDS011;31824;49.648;8.640;2023-04-29T07:54:16;0.00;;;0.00;;
46086;SDS011;31824;49.648;8.640;2023-04-29T07:57:19;0.00;;;0.00;;
46086;SDS011;31824;49.648;8.640;2023-04-29T08:00:21;0.00;;;0.00;;
46086;SDS011;31824;49.648;8.640;2023-04-29T08:03:23;0.00;;;0.00;;
46086;SDS011;31824;49.648;8.640;2023-04-29T08:06:29;0.00;;;0.00;;
46086;SDS011;31824;49.648;8.640;2023-04-29T08:09:35;0.00;;;0.00;;
46086;SDS011;31824;49.648;8.640;2023-04-29T08:12:38;0.00;;;0.00;;
46086;SDS011;31824;49.648;8.640;2023-04-29T08:15:41;0.00;;;0.00;;
46086;SDS011;31824;49.648;8.640;2023-04-29T08:18:43;0.00;;;0.00;;
46086;SDS011;31824;49.648;8.640;2023-04-29T08:21:46;0.00;;;0.00;;
46086;SDS011;31824;49.648;8.640;2023-04-29T08:24:48;0.00;;;0.00;;
46086;SDS011;31824;49.648;8.640;2023-04-29T08:27:50;0.00;;;0.00;;
46086;SDS011;31824;49.648;8.640;2023-04-29T08:30:52;0.00;;;0.00;;
46086;SDS011;31824;49.648;8.640;2023-04-29T08:33:54;0.00;;;0.00;;
46086;SDS011;31824;49.648;8.640;2023-04-29T08:36:57;0.00;;;0.00;;
46086;SDS011;31824;49.648;8.640;2023-04-29T08:40:00;0.00;;;0.00;;
46086;SDS011;31824;49.648;8.640;2023-04-29T08:43:02;0.00;;;0.00;;
46086;SDS011;31824;49.648;8.640;2023-04-29T08:46:05;0.00;;;0.00;;
46086;SDS011;31824;49.648;8.640;2023-04-29T08:49:08;0.00;;;0.00;;
46086;SDS011;31824;49.648;8.640;2023-04-29T08:52:11;0.00;;;0.00;;
46086;SDS011;31824;49.648;8.640;2023-04-29T08:55:13;0.00;;;0.00;;
46086;SDS011;31824;49.648;8.640;2023-04-29T08:58:15;0.00;;;0.00;;
46086;SDS011;31824;49.648;8.640;2023-04-29T09:01:17;0.00;;;0.00;;
46086;SDS011;31824;49.648;8.640;2023-04-29T09:04:21;0.10;;;0.08;;
46086;SDS011;31824;49.648;8.640;2023-04-29T09:07:39;0.00;;;0.00;;
46086;SDS011;31824;49.648;8.640;2023-04-29T09:10:42;0.00;;;0.00;;
46086;SDS011;31824;49.648;8.640;2023-04-29T09:13:44;0.00;;;0.00;;
46086;SDS011;31824;49.648;8.640;2023-04-29T09:16:46;4.53;;;2.08;;
46086;SDS011;31824;49.648;8.640;2023-04-29T09:19:48;5.50;;;2.28;;
46086;SDS011;31824;49.648;8.640;2023-04-29T09:22:52;6.43;;;2.50;;
46086;SDS011;31824;49.648;8.640;2023-04-29T09:25:55;3.75;;;1.67;;
46086;SDS011;31824;49.648;8.640;2023-04-29T09:29:07;4.53;;;2.08;;
46086;SDS011;31824;49.648;8.640;2023-04-29T09:32:17;3.40;;;1.88;;
46086;SDS011;31824;49.648;8.640;2023-04-29T09:35:21;4.35;;;1.50;;
46086;SDS011;31824;49.648;8.640;2023-04-29T09:38:27;3.92;;;1.73;;
46086;SDS011;31824;49.648;8.640;2023-04-29T09:41:29;4.22;;;1.83;;
46086;SDS011;31824;49.648;8.640;2023-04-29T09:44:32;3.85;;;1.90;;
46086;SDS011;31824;49.648;8.640;2023-04-29T09:47:36;4.28;;;1.85;;
46086;SDS011;31824;49.648;8.640;2023-04-29T09:50:38;4.72;;;2.00;;
46086;SDS011;31824;49.648;8.640;2023-04-29T09:54:01;3.83;;;1.80;;
46086;SDS011;31824;49.648;8.640;2023-04-29T09:57:20;3.22;;;1.45;;
46086;SDS011;31824;49.648;8.640;2023-04-29T10:00:26;4.80;;;2.00;;
46086;SDS011;31824;49.648;8.640;2023-04-29T10:03:33;4.53;;;2.00;;
46086;SDS011;31824;49.648;8.640;2023-04-29T10:06:37;3.88;;;1.80;;
46086;SDS011;31824;49.648;8.640;2023-04-29T10:09:42;4.13;;;1.83;;
46086;SDS011;31824;49.648;8.640;2023-04-29T10:12:44;5.30;;;2.17;;
46086;SDS011;31824;49.648;8.640;2023-04-29T10:15:48;3.83;;;1.55;;
46086;SDS011;31824;49.648;8.640;2023-04-29T10:18:58;6.05;;;2.08;;
46086;SDS011;31824;49.648;8.640;2023-04-29T10:22:06;5.30;;;1.88;;
46086;SDS011;31824;49.648;8.640;2023-04-29T10:25:12;3.78;;;1.42;;
46086;SDS011;31824;49.648;8.640;2023-04-29T10:28:15;4.00;;;1.85;;
46086;SDS011;31824;49.648;8.640;2023-04-29T10:32:41;3.75;;;1.73;;
46086;SDS011;31824;49.648;8.640;2023-04-29T10:35:52;3.70;;;1.38;;
46086;SDS011;31824;49.648;8.640;2023-04-29T10:38:56;3.20;;;1.55;;
46086;SDS011;31824;49.648;8.640;2023-04-29T10:41:58;4.20;;;1.88;;
46086;SDS011;31824;49.648;8.640;2023-04-29T10:47:41;3.70;;;1.52;;
46086;SDS011;31824;49.648;8.640;2023-04-29T10:51:00;5.57;;;1.90;;
46086;SDS011;31824;49.648;8.640;2023-04-29T10:54:05;5.10;;;1.60;;
46086;SDS011;31824;49.648;8.640;2023-04-29T10:57:08;4.40;;;1.60;;
46086;SDS011;31824;49.648;8.640;2023-04-29T11:02:41;5.10;;;2.22;;
46086;SDS011;31824;49.648;8.640;2023-04-29T11:05:43;5.00;;;1.60;;
46086;SDS011;31824;49.648;8.640;2023-04-29T11:08:46;4.07;;;1.40;;
46086;SDS011;31824;49.648;8.640;2023-04-29T11:11:55;3.42;;;1.73;;
46086;SDS011;31824;49.648;8.640;2023-04-29T11:17:41;3.72;;;1.70;;
46086;SDS011;31824;49.648;8.640;2023-04-29T11:24:15;5.63;;;1.60;;
46086;SDS011;31824;49.648;8.640;2023-04-29T11:27:18;4.90;;;1.67;;
46086;SDS011;31824;49.648;8.640;2023-04-29T11:32:41;4.50;;;2.00;;
46086;SDS011;31824;49.648;8.640;2023-04-29T11:35:43;2.75;;;1.25;;
46086;SDS011;31824;49.648;8.640;2023-04-29T11:38:45;2.33;;;1.02;;
46086;SDS011;31824;49.648;8.640;2023-04-29T11:41:48;2.50;;;1.17;;
46086;SDS011;31824;49.648;8.640;2023-04-29T11:47:42;2.90;;;1.50;;
46086;SDS011;31824;49.648;8.640;2023-04-29T11:50:46;3.88;;;1.45;;
46086;SDS011;31824;49.648;8.640;2023-04-29T11:53:50;4.13;;;1.35;;
46086;SDS011;31824;49.648;8.640;2023-04-29T11:56:52;2.33;;;1.05;;
46086;SDS011;31824;49.648;8.640;2023-04-29T12:02:43;2.03;;;0.90;;
46086;SDS011;31824;49.648;8.640;2023-04-29T12:05:47;2.75;;;0.95;;
46086;SDS011;31824;49.648;8.640;2023-04-29T12:11:53;3.17;;;1.52;;
46086;SDS011;31824;49.648;8.640;2023-04-29T12:17:41;4.07;;;1.40;;
46086;SDS011;31824;49.648;8.640;2023-04-29T12:20:46;2.92;;;1.25;;
46086;SDS011;31824;49.648;8.640;2023-04-29T12:23:57;2.65;;;1.05;;
46086;SDS011;31824;49.648;8.640;2023-04-29T12:27:00;3.88;;;1.30;;
46086;SDS011;31824;49.648;8.640;2023-04-29T12:30:05;2.40;;;1.20;;
46086;SDS011;31824;49.648;8.640;2023-04-29T12:33:09;3.20;;;1.25;;
46086;SDS011;31824;49.648;8.640;2023-04-29T12:36:16;3.50;;;1.63;;
46086;SDS011;31824;49.648;8.640;2023-04-29T12:39:18;3.53;;;1.45;;
46086;SDS011;31824;49.648;8.640;2023-04-29T12:42:21;3.45;;;1.50;;
46086;SDS011;31824;49.648;8.640;2023-04-29T12:45:26;3.60;;;1.48;;
46086;SDS011;31824;49.648;8.640;2023-04-29T12:48:31;3.08;;;1.20;;
46086;SDS011;31824;49.648;8.640;2023-04-29T12:51:34;3.22;;;1.38;;
46086;SDS011;31824;49.648;8.640;2023-04-29T12:54:37;4.30;;;1.50;;
46086;SDS011;31824;49.648;8.640;2023-04-29T12:57:41;4.40;;;1.48;;
46086;SDS011;31824;49.648;8.640;2023-04-29T13:00:43;3.50;;;1.58;;
46086;SDS011;31824;49.648;8.640;2023-04-29T13:03:46;3.53;;;1.40;;
46086;SDS011;31824;49.648;8.640;2023-04-29T13:06:48;2.90;;;1.25;;
46086;SDS011;31824;49.648;8.640;2023-04-29T13:09:52;2.60;;;1.10;;
46086;SDS011;31824;49.648;8.640;2023-04-29T13:12:53;2.72;;;1.30;;
46086;SDS011;31824;49.648;8.640;2023-04-29T13:15:56;2.55;;;1.35;;
46086;SDS011;31824;49.648;8.640;2023-04-29T13:18:59;3.83;;;1.70;;
46086;SDS011;31824;49.648;8.640;2023-04-29T13:22:18;2.65;;;1.20;;
46086;SDS011;31824;49.648;8.640;2023-04-29T13:25:20;2.30;;;1.08;;
46086;SDS011;31824;49.648;8.640;2023-04-29T13:28:22;3.30;;;1.30;;
46086;SDS011;31824;49.648;8.640;2023-04-29T13:31:24;3.92;;;1.27;;
46086;SDS011;31824;49.648;8.640;2023-04-29T13:34:28;3.22;;;0.95;;
46086;SDS011;31824;49.648;8.640;2023-04-29T13:37:30;2.60;;;1.23;;
46086;SDS011;31824;49.648;8.640;2023-04-29T13:40:32;2.90;;;1.42;;
46086;SDS011;31824;49.648;8.640;2023-04-29T13:43:42;2.42;;;1.05;;
46086;SDS011;31824;49.648;8.640;2023-04-29T13:46:44;2.97;;;1.20;;
46086;SDS011;31824;49.648;8.640;2023-04-29T13:49:49;2.40;;;0.90;;
46086;SDS011;31824;49.648;8.640;2023-04-29T13:52:54;3.33;;;1.40;;
46086;SDS011;31824;49.648;8.640;2023-04-29T13:56:18;3.38;;;1.30;;
46086;SDS011;31824;49.648;8.640;2023-04-29T14:02:41;3.45;;;1.23;;
46086;SDS011;31824;49.648;8.640;2023-04-29T14:05:45;2.20;;;1.02;;
46086;SDS011;31824;49.648;8.640;2023-04-29T14:08:48;2.35;;;1.13;;
46086;SDS011;31824;49.648;8.640;2023-04-29T14:11:49;2.72;;;1.30;;
46086;SDS011;31824;49.648;8.640;2023-04-29T14:17:41;3.03;;;1.20;;
46086;SDS011;31824;49.648;8.640;2023-04-29T14:20:43;2.65;;;1.17;;
46086;SDS011;31824;49.648;8.640;2023-04-29T14:23:44;1.45;;;0.70;;
46086;SDS011;31824;49.648;8.640;2023-04-29T14:26:52;3.03;;;1.20;;
46086;SDS011;31824;49.648;8.640;2023-04-29T14:32:41;2.60;;;1.20;;
46086;SDS011;31824;49.648;8.640;2023-04-29T14:35:43;3.20;;;1.35;;
46086;SDS011;31824;49.648;8.640;2023-04-29T14:38:44;2.67;;;1.13;;
46086;SDS011;31824;49.648;8.640;2023-04-29T14:41:46;2.50;;;1.10;;
46086;SDS011;31824;49.648;8.640;2023-04-29T14:44:49;3.25;;;1.20;;
46086;SDS011;31824;49.648;8.640;2023-04-29T14:47:52;2.88;;;1.42;;
46086;SDS011;31824;49.648;8.640;2023-04-29T14:50:53;4.03;;;1.27;;
46086;SDS011;31824;49.648;8.640;2023-04-29T14:53:56;2.15;;;1.10;;
46086;SDS011;31824;49.648;8.640;2023-04-29T14:56:57;6.20;;;1.20;;
46086;SDS011;31824;49.648;8.640;2023-04-29T14:59:59;3.83;;;1.25;;
46086;SDS011;31824;49.648;8.640;2023-04-29T15:03:03;2.97;;;1.20;;
46086;SDS011;31824;49.648;8.640;2023-04-29T15:06:05;3.05;;;1.30;;
46086;SDS011;31824;49.648;8.640;2023-04-29T15:09:07;2.90;;;1.17;;
46086;SDS011;31824;49.648;8.640;2023-04-29T15:12:09;3.00;;;1.05;;
46086;SDS011;31824;49.648;8.640;2023-04-29T15:15:11;2.53;;;0.95;;
46086;SDS011;31824;49.648;8.640;2023-04-29T15:18:14;2.15;;;1.10;;
46086;SDS011;31824;49.648;8.640;2023-04-29T15:21:16;2.65;;;1.10;;
46086;SDS011;31824;49.648;8.640;2023-04-29T15:24:21;2.05;;;1.05;;
46086;SDS011;31824;49.648;8.640;2023-04-29T15:27:23;2.15;;;1.10;;
46086;SDS011;31824;49.648;8.640;2023-04-29T15:30:25;1.52;;;0.70;;
46086;SDS011;31824;49.648;8.640;2023-04-29T15:33:28;3.03;;;1.17;;
46086;SDS011;31824;49.648;8.640;2023-04-29T15:36:30;2.15;;;1.00;;
46086;SDS011;31824;49.648;8.640;2023-04-29T15:42:37;2.00;;;0.90;;
46086;SDS011;31824;49.648;8.640;2023-04-29T15:45:39;3.17;;;1.13;;
46086;SDS011;31824;49.648;8.640;2023-04-29T15:48:42;3.50;;;1.15;;
46086;SDS011;31824;49.648;8.640;2023-04-29T15:51:45;3.03;;;1.33;;
46086;SDS011;31824;49.648;8.640;2023-04-29T15:54:47;3.38;;;1.30;;
46086;SDS011;31824;49.648;8.640;2023-04-29T15:57:49;2.10;;;1.02;;
46086;SDS011;31824;49.648;8.640;2023-04-29T16:00:51;3.30;;;0.90;;
46086;SDS011;31824;49.648;8.640;2023-04-29T16:03:55;3.38;;;1.13;;
46086;SDS011;31824;49.648;8.640;2023-04-29T16:06:59;3.05;;;1.30;;
46086;SDS011;31824;49.648;8.640;2023-04-29T16:10:05;3.25;;;1.40;;
46086;SDS011;31824;49.648;8.640;2023-04-29T16:13:08;3.38;;;1.40;;
46086;SDS011;31824;49.648;8.640;2023-04-29T16:16:09;2.03;;;1.05;;
46086;SDS011;31824;49.648;8.640;2023-04-29T16:19:12;3.22;;;1.52;;
46086;SDS011;31824;49.648;8.640;2023-04-29T16:22:14;2.83;;;1.38;;
46086;SDS011;31824;49.648;8.640;2023-04-29T16:25:16;3.35;;;1.30;;
46086;SDS011;31824;49.648;8.640;2023-04-29T16:28:18;3.15;;;1.40;;
46086;SDS011;31824;49.648;8.640;2023-04-29T16:31:20;2.60;;;1.13;;
46086;SDS011;31824;49.648;8.640;2023-04-29T16:34:24;2.35;;;1.25;;
46086;SDS011;31824;49.648;8.640;2023-04-29T16:37:26;2.40;;;1.35;;
46086;SDS011;31824;49.648;8.640;2023-04-29T16:40:27;3.30;;;1.35;;
46086;SDS011;31824;49.648;8.640;2023-04-29T16:43:29;3.45;;;1.35;;
46086;SDS011;31824;49.648;8.640;2023-04-29T16:46:31;2.75;;;1.40;;
46086;SDS011;31824;49.648;8.640;2023-04-29T16:49:35;3.13;;;1.30;;
46086;SDS011;31824;49.648;8.640;2023-04-29T16:52:37;4.75;;;1.60;;
46086;SDS011;31824;49.648;8.640;2023-04-29T16:55:38;3.65;;;1.55;;
46086;SDS011;31824;49.648;8.640;2023-04-29T16:58:41;3.05;;;1.58;;
46086;SDS011;31824;49.648;8.640;2023-04-29T17:01:42;2.55;;;1.10;;
46086;SDS011;31824;49.648;8.640;2023-04-29T17:04:46;2.20;;;1.13;;
46086;SDS011;31824;49.648;8.640;2023-04-29T17:07:48;3.28;;;1.17;;
46086;SDS011;31824;49.648;8.640;2023-04-29T17:10:50;2.90;;;1.48;;
46086;SDS011;31824;49.648;8.640;2023-04-29T17:13:54;2.30;;;1.02;;
46086;SDS011;31824;49.648;8.640;2023-04-29T17:16:56;2.28;;;1.33;;
46086;SDS011;31824;49.648;8.640;2023-04-29T17:19:59;3.90;;;1.20;;
46086;SDS011;31824;49.648;8.640;2023-04-29T17:23:01;3.22;;;1.30;;
46086;SDS011;31824;49.648;8.640;2023-04-29T17:26:03;2.00;;;0.98;;
46086;SDS011;31824;49.648;8.640;2023-04-29T17:29:08;2.25;;;1.00;;
46086;SDS011;31824;49.648;8.640;2023-04-29T17:32:12;4.40;;;1.05;;
46086;SDS011;31824;49.648;8.640;2023-04-29T17:35:18;1.73;;;0.77;;
46086;SDS011;31824;49.648;8.640;2023-04-29T17:38:20;1.92;;;0.70;;
46086;SDS011;31824;49.648;8.640;2023-04-29T17:41:22;0.55;;;0.35;;
46086;SDS011;31824;49.648;8.640;2023-04-29T17:44:24;1.80;;;0.60;;
46086;SDS011;31824;49.648;8.640;2023-04-29T17:47:26;1.20;;;0.50;;
46086;SDS011;31824;49.648;8.640;2023-04-29T17:50:31;0.80;;;0.30;;
46086;SDS011;31824;49.648;8.640;2023-04-29T17:53:33;1.52;;;0.55;;
46086;SDS011;31824;49.648;8.640;2023-04-29T17:56:35;1.77;;;0.68;;
46086;SDS011;31824;49.648;8.640;2023-04-29T17:59:38;2.97;;;0.45;;
46086;SDS011;31824;49.648;8.640;2023-04-29T18:02:40;1.50;;;0.50;;
46086;SDS011;31824;49.648;8.640;2023-04-29T18:05:44;0.82;;;0.50;;
46086;SDS011;31824;49.648;8.640;2023-04-29T18:08:47;0.98;;;0.50;;
46086;SDS011;31824;49.648;8.640;2023-04-29T18:11:49;1.00;;;0.50;;
46086;SDS011;31824;49.648;8.640;2023-04-29T18:14:51;0.88;;;0.50;;
46086;SDS011;31824;49.648;8.640;2023-04-29T18:17:52;1.08;;;0.50;;
46086;SDS011;31824;49.648;8.640;2023-04-29T18:20:56;1.92;;;0.60;;
46086;SDS011;31824;49.648;8.640;2023-04-29T18:23:58;0.55;;;0.38;;
46086;SDS011;31824;49.648;8.640;2023-04-29T18:27:00;1.65;;;0.63;;
46086;SDS011;31824;49.648;8.640;2023-04-29T18:30:02;2.38;;;0.70;;
46086;SDS011;31824;49.648;8.640;2023-04-29T18:33:05;1.23;;;0.50;;
46086;SDS011;31824;49.648;8.640;2023-04-29T18:36:08;1.08;;;0.50;;
46086;SDS011;31824;49.648;8.640;2023-04-29T18:39:14;1.02;;;0.40;;
46086;SDS011;31824;49.648;8.640;2023-04-29T18:42:16;1.33;;;0.50;;
46086;SDS011;31824;49.648;8.640;2023-04-29T18:47:41;1.70;;;0.77;;
46086;SDS011;31824;49.648;8.640;2023-04-29T18:50:43;1.35;;;0.60;;
46086;SDS011;31824;49.648;8.640;2023-04-29T18:53:44;2.15;;;0.77;;
46086;SDS011;31824;49.648;8.640;2023-04-29T18:56:46;2.47;;;0.90;;
46086;SDS011;31824;49.648;8.640;2023-04-29T19:02:41;1.92;;;0.70;;
46086;SDS011;31824;49.648;8.640;2023-04-29T19:05:43;2.58;;;0.70;;
46086;SDS011;31824;49.648;8.640;2023-04-29T19:08:45;2.22;;;1.08;;
46086;SDS011;31824;49.648;8.640;2023-04-29T19:11:47;5.03;;;1.50;;
46086;SDS011;31824;49.648;8.640;2023-04-29T19:17:41;3.20;;;0.98;;
46086;SDS011;31824;49.648;8.640;2023-04-29T19:20:43;2.75;;;1.17;;
46086;SDS011;31824;49.648;8.640;2023-04-29T19:23:44;2.67;;;1.30;;